Portada
METAR-TAF:

METAR-TAF

Aeroports :

Illa de Saint Thomas, Illes Verges Nord-americanes

latitud: 18-20N, longitud: 064-59W, altitud: 7 m

Observació

L'informe es va fer fa 17 minuts, a les 09:53 UTC
Vent calma
Temperatura 26°C
Humitat 79%
Pressió 1012 hPa
Visibilitat: 16.1 km
Cel clar

METAR: TIST 210953Z AUTO 00000KT 10SM CLR 26/22 A2987 RMK AO2 SLP114 T02560222

Hora: 06:10 (10:10 UTC)

Pronòstic

L'informe es va fer fa 4 hores i 31 minuts, a les 05:39 UTC
Pronòstic vàlid del 21 a les 06 UTC al 22 a les 06 UTC
Vent 3 kt amb direcció variable
Visibilitat: 10 km
Escasses núvols a una alçada de 5000 ft
A partir de les 21 a les 1400 UTC
Vent 7 kt del Sud
Visibilitat: 10 km
Escasses núvols a una alçada de 3500 ft

TAF: TIST 210539Z 2106/2206 VRB03KT P6SM FEW050 FM211400 19007KT P6SM FEW035

Observacions i pronòstics meteorològics de més de 4000 aeroports (METAR i TAF).

Les estacions disponibles són els punts grocs i vermells al mapa.

Posi el ratolí al punt desitjat per veure el nom de l'estació.

Feu clic per veure les observacions i els pronòstics meteorològics.

Per canviar el mapa: feu clic els botons verds amb una creu de color negre per apropar; al botó verd amb un guió per allunyar la imatge; o en les fletxes verdes per a mapes adjacents.


METAR-TAF: